createdAt,value
2022-08-05T00:04:29.991Z,8.23
2022-08-05T00:09:34.692Z,11.70
2022-08-05T00:14:37.300Z,10.23
2022-08-05T00:19:45.604Z,13.63
2022-08-05T00:24:59.427Z,7.15
2022-08-05T00:30:04.562Z,10.30
2022-08-05T00:35:08.436Z,8.30
2022-08-05T00:40:13.747Z,9.93
2022-08-05T00:45:28.413Z,9.52
2022-08-05T00:50:44.264Z,7.82
2022-08-05T00:55:50.697Z,10.73
2022-08-05T01:00:53.267Z,11.18
2022-08-05T01:05:56.594Z,8.05
2022-08-05T01:11:03.745Z,9.30
2022-08-05T01:16:11.293Z,9.57
2022-08-05T01:21:25.575Z,9.00
2022-08-05T01:26:55.427Z,11.15
2022-08-05T01:32:03.202Z,12.32
2022-08-05T01:37:10.604Z,11.18
2022-08-05T01:42:28.771Z,15.50
2022-08-05T01:47:38.994Z,15.40
2022-08-05T01:52:44.946Z,11.65
2022-08-05T01:58:10.298Z,12.90
2022-08-05T02:03:31.389Z,10.48
2022-08-05T02:08:40.879Z,11.43
2022-08-05T02:14:12.664Z,11.32
2022-08-05T02:19:25.588Z,16.27
2022-08-05T02:24:41.079Z,11.60
2022-08-05T02:29:58.477Z,13.18
2022-08-05T02:35:13.333Z,15.02
2022-08-05T02:40:18.097Z,14.05
2022-08-05T02:45:23.810Z,15.68
2022-08-05T02:50:30.218Z,17.02
2022-08-05T02:55:54.399Z,13.90
2022-08-05T03:00:57.508Z,13.90
2022-08-05T03:06:55.389Z,14.18
2022-08-05T03:11:57.543Z,14.07
2022-08-05T03:21:55.714Z,18.35
2022-08-05T03:26:58.880Z,14.48
2022-08-05T03:32:01.767Z,19.50
2022-08-05T03:37:07.352Z,18.42
2022-08-05T03:42:12.862Z,16.48
2022-08-05T03:47:15.493Z,15.98
2022-08-05T03:52:38.457Z,16.65
2022-08-05T03:57:49.666Z,19.15
2022-08-05T04:02:59.016Z,18.20
2022-08-05T04:08:05.541Z,17.38
2022-08-05T04:13:08.709Z,17.13
2022-08-05T04:18:20.549Z,19.40
2022-08-05T04:23:57.272Z,18.98
2022-08-05T04:28:52.235Z,18.05
2022-08-05T04:34:31.401Z,18.88
2022-08-05T04:39:18.857Z,17.70
2022-08-05T04:44:30.006Z,19.13
2022-08-05T04:49:38.427Z,19.50
2022-08-05T04:54:57.939Z,17.17
2022-08-05T05:00:01.484Z,17.88
2022-08-05T05:05:04.183Z,18.23
2022-08-05T05:10:29.641Z,17.00
2022-08-05T05:15:57.320Z,14.88
2022-08-05T05:20:56.113Z,13.43
2022-08-05T05:26:02.512Z,14.35
2022-08-05T05:31:05.626Z,16.55
2022-08-05T05:36:11.444Z,13.77
2022-08-05T05:41:18.597Z,12.38
2022-08-05T05:46:21.883Z,14.35
2022-08-05T05:51:49.870Z,14.63
2022-08-05T05:56:54.723Z,13.00
2022-08-05T06:01:58.191Z,12.52
2022-08-05T06:07:01.689Z,13.48
2022-08-05T06:12:06.395Z,11.68
2022-08-05T06:17:22.513Z,10.90
2022-08-05T06:22:28.594Z,13.13
2022-08-05T06:28:11.728Z,14.20
2022-08-05T06:32:55.604Z,13.13
2022-08-05T06:38:00.958Z,13.73
2022-08-05T06:43:58.092Z,12.95
2022-08-05T06:53:53.798Z,9.57
2022-08-05T06:58:57.791Z,11.60
2022-08-05T07:04:01.275Z,12.07
2022-08-05T07:09:04.654Z,9.27
2022-08-05T07:14:29.312Z,9.60
2022-08-05T07:24:55.871Z,7.60
2022-08-05T07:30:24.441Z,7.47
2022-08-05T07:36:01.813Z,7.60
2022-08-05T07:40:45.474Z,7.38
2022-08-05T07:45:59.444Z,8.90
2022-08-05T07:51:04.411Z,8.52
2022-08-05T07:57:00.063Z,7.75
2022-08-05T08:01:52.495Z,9.38
2022-08-05T08:07:00.910Z,5.85
2022-08-05T08:12:19.980Z,7.68
2022-08-05T08:17:32.508Z,9.70
2022-08-05T08:22:35.232Z,5.30
2022-08-05T08:32:51.210Z,5.43
2022-08-05T08:37:56.316Z,4.65
2022-08-05T08:44:57.883Z,7.25
2022-08-05T08:49:02.987Z,5.30
2022-08-05T08:53:49.838Z,4.35
2022-08-05T08:58:52.552Z,2.03
2022-08-05T09:03:57.547Z,2.50
2022-08-05T09:09:02.790Z,3.38
2022-08-05T09:14:54.042Z,3.28
2022-08-05T09:19:36.761Z,2.30
2022-08-05T09:24:59.297Z,2.33
2022-08-05T09:30:06.434Z,3.00
2022-08-05T09:35:26.465Z,2.80
2022-08-05T09:40:32.346Z,4.22
2022-08-05T09:46:07.570Z,1.60
2022-08-05T09:51:02.971Z,6.50
2022-08-05T09:56:13.046Z,2.78
2022-08-05T10:01:31.990Z,3.47
2022-08-05T10:06:36.601Z,2.95
2022-08-05T10:11:39.267Z,2.78
2022-08-05T10:16:53.089Z,1.13
2022-08-05T10:21:57.322Z,1.60
2022-08-05T10:27:01.431Z,1.35
2022-08-05T10:32:51.521Z,1.35
2022-08-05T10:37:41.313Z,1.05
2022-08-05T10:42:51.685Z,1.52
2022-08-05T10:48:29.232Z,2.13
2022-08-05T10:53:38.255Z,1.95
2022-08-05T10:59:03.951Z,1.02
2022-08-05T11:04:17.325Z,2.08
2022-08-05T11:09:39.066Z,1.88
2022-08-05T11:15:01.506Z,2.20
2022-08-05T11:20:34.206Z,2.40
2022-08-05T11:26:04.343Z,1.02
2022-08-05T11:31:57.148Z,0.98
2022-08-05T11:36:52.589Z,1.75
2022-08-05T11:42:02.260Z,2.92
2022-08-05T11:47:10.908Z,1.20
2022-08-05T11:52:24.484Z,1.95
2022-08-05T11:58:08.002Z,1.88
2022-08-05T12:02:56.586Z,1.83
2022-08-05T12:08:07.901Z,0.95
2022-08-05T12:13:27.636Z,1.23
2022-08-05T12:18:39.722Z,0.57
2022-08-05T12:24:00.096Z,1.65
2022-08-05T12:29:14.408Z,2.47
2022-08-05T12:34:23.477Z,0.67
2022-08-05T12:39:37.610Z,0.77
2022-08-05T12:44:44.337Z,2.53
2022-08-05T12:50:04.098Z,3.70
2022-08-05T12:55:22.602Z,1.55
2022-08-05T13:02:03.859Z,2.17
2022-08-05T13:05:52.574Z,2.45
2022-08-05T13:11:00.713Z,0.50
2022-08-05T13:16:12.378Z,0.68
2022-08-05T13:21:19.383Z,1.98
2022-08-05T13:26:27.214Z,1.98
2022-08-05T13:32:04.966Z,3.28
2022-08-05T13:36:56.836Z,1.55
2022-08-05T13:41:59.700Z,0.85
2022-08-05T13:47:08.838Z,0.95
2022-08-05T13:52:13.218Z,1.75
2022-08-05T13:57:16.340Z,2.25
2022-08-05T14:02:20.665Z,2.92
2022-08-05T14:08:00.611Z,2.55
2022-08-05T14:12:54.496Z,1.50
2022-08-05T14:17:59.840Z,1.20
2022-08-05T14:23:03.530Z,0.63
2022-08-05T14:28:06.095Z,1.08
2022-08-05T14:33:10.524Z,1.27
2022-08-05T14:38:32.242Z,1.73
2022-08-05T14:43:51.818Z,1.40
2022-08-05T14:49:07.400Z,0.80
2022-08-05T14:54:28.753Z,0.75
2022-08-05T15:04:39.764Z,0.82
2022-08-05T15:09:52.749Z,0.73
2022-08-05T15:14:57.881Z,1.42
2022-08-05T15:20:01.815Z,1.90
2022-08-05T15:25:13.748Z,1.95
2022-08-05T15:30:17.318Z,0.90
2022-08-05T15:35:21.806Z,2.00
2022-08-05T15:41:00.836Z,1.80
2022-08-05T15:45:47.440Z,1.63
2022-08-05T15:50:51.443Z,2.20
2022-08-05T15:56:02.743Z,0.90
2022-08-05T16:01:17.079Z,2.00
2022-08-05T16:06:23.121Z,1.98
2022-08-05T16:11:42.884Z,2.17
2022-08-05T16:16:47.231Z,2.72
2022-08-05T16:22:01.133Z,2.60
2022-08-05T16:27:07.412Z,3.30
2022-08-05T16:32:10.314Z,2.05
2022-08-05T16:38:02.422Z,1.02
2022-08-05T16:42:37.309Z,0.70
2022-08-05T16:47:53.553Z,1.40
2022-08-05T16:53:01.637Z,2.83
2022-08-05T16:58:15.571Z,2.35
2022-08-05T17:03:22.722Z,3.85
2022-08-05T17:08:33.597Z,0.73
2022-08-05T17:13:46.215Z,1.13
2022-08-05T17:18:48.816Z,1.85
2022-08-05T17:29:15.447Z,1.45
2022-08-05T17:34:18.223Z,4.45
2022-08-05T17:39:23.755Z,3.25
2022-08-05T17:44:32.720Z,1.63
2022-08-05T17:49:59.715Z,1.52
2022-08-05T17:54:59.728Z,1.65
2022-08-05T18:00:05.345Z,2.45
2022-08-05T18:05:09.668Z,1.10
2022-08-05T18:10:21.411Z,0.80
2022-08-05T18:15:27.047Z,1.15
2022-08-05T18:20:31.960Z,0.88
2022-08-05T18:25:36.441Z,1.27
2022-08-05T18:30:41.794Z,1.08
2022-08-05T18:36:00.095Z,2.65
2022-08-05T18:41:56.161Z,2.10
2022-08-05T18:52:05.715Z,3.03
2022-08-05T18:57:15.537Z,4.78
2022-08-05T19:02:36.488Z,1.67
2022-08-05T19:07:42.342Z,2.03
2022-08-05T19:12:49.698Z,1.98
2022-08-05T19:18:08.532Z,2.50
2022-08-05T19:24:04.397Z,4.50
2022-08-05T19:28:36.554Z,1.38
2022-08-05T19:33:40.607Z,3.42
2022-08-05T19:38:51.290Z,2.10
2022-08-05T19:44:06.630Z,5.53
2022-08-05T19:49:16.798Z,2.75
2022-08-05T19:54:26.799Z,4.45
2022-08-05T20:04:58.747Z,1.67
2022-08-05T20:10:02.396Z,4.93
2022-08-05T20:15:23.012Z,2.63
2022-08-05T20:20:38.996Z,1.75
2022-08-05T20:25:42.008Z,1.70
2022-08-05T20:30:45.866Z,2.63
2022-08-05T20:35:50.483Z,4.68
2022-08-05T20:40:52.976Z,4.30
2022-08-05T20:46:00.381Z,2.55
2022-08-05T20:51:08.351Z,3.40
2022-08-05T20:56:11.000Z,2.50
2022-08-05T21:01:14.872Z,3.47
2022-08-05T21:06:28.591Z,2.00
2022-08-05T21:12:09.066Z,3.05
2022-08-05T21:16:56.982Z,2.47
2022-08-05T21:21:59.527Z,3.78
2022-08-05T21:27:02.167Z,4.10
2022-08-05T21:32:07.080Z,3.15
2022-08-05T21:37:09.682Z,4.90
2022-08-05T21:42:30.788Z,6.50
2022-08-05T21:47:56.100Z,3.13
2022-08-05T21:53:04.546Z,3.25
2022-08-05T21:58:11.658Z,4.18
2022-08-05T22:03:15.703Z,3.58
2022-08-05T22:08:24.158Z,5.63
2022-08-05T22:14:31.256Z,6.03
2022-08-05T22:18:52.798Z,8.38
2022-08-05T22:24:40.301Z,5.88
2022-08-05T22:29:35.763Z,5.75
2022-08-05T22:34:39.631Z,4.13
2022-08-05T22:39:43.227Z,4.97
2022-08-05T22:44:48.580Z,3.25
2022-08-05T22:50:20.443Z,4.03
2022-08-05T22:55:24.789Z,6.07
2022-08-05T23:00:29.222Z,4.47
2022-08-05T23:05:36.157Z,5.97
2022-08-05T23:10:38.817Z,5.38
2022-08-05T23:15:41.522Z,5.00
2022-08-05T23:20:46.866Z,4.03
2022-08-05T23:25:55.450Z,5.50
2022-08-05T23:31:07.042Z,5.03
2022-08-05T23:36:28.233Z,3.88
2022-08-05T23:41:34.287Z,4.00
2022-08-05T23:46:40.298Z,6.28
2022-08-05T23:52:03.375Z,3.83
2022-08-05T23:57:08.963Z,5.45
